Time;durP1;ratioP1;P1;durP2;ratioP2;P2;SDS_P1;SDS_P2;PMS_P1;PMS_P2;Temp;Humidity;BMP_temperature;BMP_pressure;BME280_temperature;BME280_humidity;BME280_pressure;Samples;Min_cycle;Max_cycle;Signal;HPM_P1;HPM_P2
2024/01/29 00:02:03;;;;;;;10.77;4.37;;;4.10;99.90;;;;;;5063255;28;20476;-67
2024/01/29 00:04:30;;;;;;;11.73;4.83;;;4.10;99.90;;;;;;5068524;28;20437;-65
2024/01/29 00:07:00;;;;;;;13.23;4.53;;;4.10;99.90;;;;;;5078774;28;20457;-64
2024/01/29 00:09:27;;;;;;;10.13;4.50;;;4.10;99.90;;;;;;5078007;28;20467;-64
2024/01/29 00:11:54;;;;;;;5.70;3.40;;;4.10;99.90;;;;;;5066441;28;20449;-66
2024/01/29 00:14:23;;;;;;;7.33;4.13;;;4.00;99.90;;;;;;5057641;28;20590;-66
2024/01/29 00:16:51;;;;;;;7.27;5.07;;;3.90;99.90;;;;;;5057409;28;20468;-66
2024/01/29 00:19:18;;;;;;;15.87;4.63;;;3.90;99.90;;;;;;5057328;28;20446;-67
2024/01/29 00:21:45;;;;;;;12.40;4.00;;;3.90;99.90;;;;;;5057219;28;20535;-66
2024/01/29 00:24:12;;;;;;;8.57;3.80;;;3.80;99.90;;;;;;5057156;28;20434;-65
2024/01/29 00:26:39;;;;;;;12.70;3.83;;;3.80;99.90;;;;;;5056489;28;20448;-66
2024/01/29 00:29:06;;;;;;;10.23;3.47;;;3.90;99.90;;;;;;5056695;28;20462;-65
2024/01/29 00:31:35;;;;;;;13.60;5.57;;;3.80;99.90;;;;;;5056491;28;20432;-64
2024/01/29 00:34:03;;;;;;;9.50;4.03;;;3.80;99.90;;;;;;5056503;28;20474;-64
2024/01/29 00:36:30;;;;;;;6.60;4.10;;;3.80;99.90;;;;;;5056197;28;20956;-66
2024/01/29 00:38:57;;;;;;;6.17;3.57;;;3.80;99.90;;;;;;5056608;28;20444;-66
2024/01/29 00:41:24;;;;;;;10.83;4.60;;;3.80;99.90;;;;;;5054972;28;20477;-65
2024/01/29 00:43:51;;;;;;;12.87;5.70;;;3.80;99.90;;;;;;5057938;28;20448;-65
2024/01/29 00:46:19;;;;;;;12.13;5.37;;;3.80;99.90;;;;;;5072430;28;20441;-65
2024/01/29 00:48:46;;;;;;;19.53;7.73;;;3.80;99.90;;;;;;5073102;28;20449;-66
2024/01/29 00:51:14;;;;;;;7.70;4.50;;;3.80;99.90;;;;;;5072388;28;20449;-65
2024/01/29 00:53:44;;;;;;;11.50;4.63;;;3.80;99.90;;;;;;5073436;28;20472;-67
2024/01/29 00:56:11;;;;;;;9.83;4.33;;;3.90;99.90;;;;;;5073491;28;20441;-66
2024/01/29 00:58:39;;;;;;;8.67;5.30;;;3.90;99.90;;;;;;5068233;28;20449;-67
2024/01/29 01:01:06;;;;;;;14.73;6.33;;;3.80;99.90;;;;;;5062629;28;20503;-67
2024/01/29 01:03:36;;;;;;;8.23;5.27;;;3.80;99.90;;;;;;5072400;28;20559;-66
2024/01/29 01:06:03;;;;;;;9.37;5.33;;;3.80;99.90;;;;;;5078912;28;20650;-67
2024/01/29 01:08:31;;;;;;;7.43;4.70;;;3.70;99.90;;;;;;5077481;28;20990;-66
2024/01/29 01:10:58;;;;;;;6.63;3.80;;;3.70;99.90;;;;;;5076620;28;20523;-66
2024/01/29 01:13:25;;;;;;;9.33;3.77;;;3.70;99.90;;;;;;5073264;28;20494;-67
2024/01/29 01:15:52;;;;;;;7.70;3.80;;;3.70;99.90;;;;;;5064046;28;20445;-66
2024/01/29 01:18:18;;;;;;;6.27;3.60;;;3.70;99.90;;;;;;5054304;28;20485;-66
2024/01/29 01:20:45;;;;;;;11.50;4.27;;;3.70;99.90;;;;;;5053644;28;20489;-65
2024/01/29 01:23:12;;;;;;;5.93;3.43;;;3.70;99.90;;;;;;5053554;28;20500;-66
2024/01/29 01:25:41;;;;;;;10.70;4.17;;;3.70;99.90;;;;;;5053516;28;20476;-65
2024/01/29 01:28:08;;;;;;;9.60;3.73;;;3.70;99.90;;;;;;5053783;28;20956;-65
2024/01/29 01:30:35;;;;;;;9.50;4.00;;;3.60;99.90;;;;;;5054776;28;20453;-65
2024/01/29 01:33:02;;;;;;;18.23;4.30;;;3.70;99.90;;;;;;5054281;28;20557;-66
2024/01/29 01:35:29;;;;;;;5.93;3.80;;;3.60;99.90;;;;;;5054375;28;20480;-65
2024/01/29 01:37:56;;;;;;;8.20;3.90;;;3.60;99.90;;;;;;5055112;28;20483;-66
2024/01/29 01:40:31;;;;;;;10.73;4.00;;;3.60;99.90;;;;;;5058243;28;20554;-64
2024/01/29 01:43:17;;;;;;;6.47;4.10;;;3.70;99.90;;;;;;5058421;28;20424;-66
2024/01/29 01:45:44;;;;;;;9.07;3.70;;;3.60;99.90;;;;;;5047751;28;21116;-67
2024/01/29 01:48:11;;;;;;;11.63;4.43;;;3.70;99.90;;;;;;5054117;28;20527;-65
2024/01/29 01:50:39;;;;;;;12.63;4.57;;;3.60;99.90;;;;;;5054234;28;20527;-67
2024/01/29 01:53:06;;;;;;;9.13;4.67;;;3.60;99.90;;;;;;5056906;28;20511;-65
2024/01/29 01:55:33;;;;;;;8.80;5.13;;;3.60;99.90;;;;;;5054089;28;20520;-66
2024/01/29 01:58:02;;;;;;;13.97;4.30;;;3.60;99.90;;;;;;5054105;28;20831;-66
2024/01/29 02:00:29;;;;;;;10.43;4.90;;;3.60;99.90;;;;;;5062289;28;20495;-65
2024/01/29 02:02:56;;;;;;;13.27;5.67;;;3.60;99.90;;;;;;5073563;28;20482;-66
2024/01/29 02:05:23;;;;;;;12.23;5.57;;;3.60;99.90;;;;;;5074268;28;20452;-65
2024/01/29 02:07:50;;;;;;;11.40;5.70;;;3.60;99.90;;;;;;5073975;28;20481;-65
2024/01/29 02:10:17;;;;;;;8.13;4.87;;;3.50;99.90;;;;;;5092088;28;20444;-67
2024/01/29 02:12:44;;;;;;;10.27;5.70;;;3.50;99.90;;;;;;5095913;28;20455;-62
2024/01/29 02:15:14;;;;;;;11.03;6.10;;;3.50;99.90;;;;;;5088891;28;20475;-65
2024/01/29 02:17:41;;;;;;;8.00;5.70;;;3.50;99.90;;;;;;5075631;28;20513;-64
2024/01/29 02:20:09;;;;;;;9.87;4.57;;;3.50;99.90;;;;;;5073997;28;21036;-65
2024/01/29 02:22:43;;;;;;;7.73;4.70;;;3.50;99.90;;;;;;5073783;28;20806;-66
2024/01/29 02:25:10;;;;;;;8.73;4.53;;;3.40;99.90;;;;;;5073308;28;20908;-65
2024/01/29 02:27:37;;;;;;;10.83;5.20;;;3.40;99.90;;;;;;5073627;28;20791;-66
2024/01/29 02:30:05;;;;;;;9.40;4.63;;;3.40;99.90;;;;;;5073636;28;20481;-66
2024/01/29 02:32:32;;;;;;;7.63;4.03;;;3.40;99.90;;;;;;5073834;28;20804;-64
2024/01/29 02:34:59;;;;;;;6.20;4.53;;;3.40;99.90;;;;;;5071781;28;21083;-66
2024/01/29 02:37:26;;;;;;;9.20;5.43;;;3.40;99.90;;;;;;5070969;28;20544;-67
2024/01/29 02:39:54;;;;;;;8.63;4.27;;;3.30;99.90;;;;;;5060410;28;20457;-68
2024/01/29 02:42:21;;;;;;;9.60;4.07;;;3.30;99.90;;;;;;5067775;28;20960;-66
2024/01/29 02:44:48;;;;;;;12.60;4.73;;;3.30;99.90;;;;;;5053378;28;20455;-65
2024/01/29 02:47:15;;;;;;;10.90;4.83;;;3.30;99.90;;;;;;5058617;28;20498;-67
2024/01/29 02:49:45;;;;;;;16.33;4.70;;;3.30;99.90;;;;;;5073686;28;20777;-65
2024/01/29 02:52:12;;;;;;;4.90;3.90;;;3.30;99.90;;;;;;5073326;28;20530;-66
2024/01/29 02:54:39;;;;;;;7.10;3.97;;;3.30;99.90;;;;;;5073400;28;20471;-66
2024/01/29 02:57:07;;;;;;;5.87;4.23;;;3.30;99.90;;;;;;5073812;28;20546;-66
2024/01/29 02:59:34;;;;;;;10.53;4.53;;;3.30;99.90;;;;;;5070175;28;20531;-65
2024/01/29 03:02:03;;;;;;;6.90;3.87;;;3.30;99.90;;;;;;5059695;28;20547;-64
2024/01/29 03:04:30;;;;;;;9.90;4.80;;;3.30;99.90;;;;;;5071819;28;20480;-63
2024/01/29 03:06:57;;;;;;;6.30;3.80;;;3.30;99.90;;;;;;5072234;28;20495;-65
2024/01/29 03:09:24;;;;;;;9.90;4.80;;;3.30;99.90;;;;;;5074210;28;20816;-67
2024/01/29 03:11:51;;;;;;;10.70;4.50;;;3.30;99.90;;;;;;5074871;28;20425;-65
2024/01/29 03:14:19;;;;;;;8.70;4.23;;;3.20;99.90;;;;;;5074990;28;20468;-66
2024/01/29 03:16:51;;;;;;;9.40;5.50;;;3.20;99.90;;;;;;5064804;28;20500;-66
2024/01/29 03:19:18;;;;;;;8.00;4.60;;;3.10;99.90;;;;;;5059795;28;20503;-66
2024/01/29 03:21:45;;;;;;;10.20;4.27;;;3.10;99.90;;;;;;5058000;28;20555;-66
2024/01/29 03:24:12;;;;;;;12.03;4.07;;;3.10;99.90;;;;;;5056997;28;20463;-64
2024/01/29 03:26:39;;;;;;;11.23;4.10;;;3.10;99.90;;;;;;5053759;28;20961;-66
2024/01/29 03:29:05;;;;;;;9.70;4.57;;;3.10;99.90;;;;;;5053173;28;20436;-63
2024/01/29 03:31:34;;;;;;;10.40;4.40;;;3.10;99.90;;;;;;5058067;28;20535;-66
2024/01/29 03:34:00;;;;;;;5.30;4.30;;;3.20;99.90;;;;;;5055669;28;20552;-66
2024/01/29 03:36:27;;;;;;;8.80;5.57;;;3.20;99.90;;;;;;5059992;28;20473;-64
2024/01/29 03:38:54;;;;;;;12.60;5.00;;;3.20;99.90;;;;;;5058584;28;20447;-65
2024/01/29 03:41:21;;;;;;;16.87;5.73;;;3.10;99.90;;;;;;5056414;28;20552;-65
2024/01/29 03:43:48;;;;;;;9.20;3.67;;;3.10;99.90;;;;;;5056580;28;20458;-66
2024/01/29 03:46:18;;;;;;;21.00;5.13;;;3.10;99.90;;;;;;5056490;28;20529;-65
2024/01/29 03:48:46;;;;;;;8.70;4.20;;;3.10;99.90;;;;;;5056387;28;20520;-65
2024/01/29 03:51:13;;;;;;;11.87;4.80;;;3.20;99.90;;;;;;5061628;28;20542;-66
2024/01/29 03:53:40;;;;;;;10.47;4.17;;;3.10;99.90;;;;;;5066183;28;20464;-66
2024/01/29 03:56:07;;;;;;;17.70;5.10;;;3.10;99.90;;;;;;5066488;28;20436;-66
2024/01/29 03:58:34;;;;;;;6.97;3.90;;;3.00;99.90;;;;;;5066587;28;20534;-66
2024/01/29 04:01:01;;;;;;;4.40;3.33;;;3.00;99.90;;;;;;5067905;28;20502;-65
2024/01/29 04:03:27;;;;;;;9.70;4.93;;;3.00;99.90;;;;;;5066329;28;20562;-65
2024/01/29 04:05:56;;;;;;;14.93;4.63;;;3.00;99.90;;;;;;5068675;28;20570;-65
2024/01/29 04:08:23;;;;;;;10.47;4.13;;;3.00;99.90;;;;;;5064651;28;20563;-65
2024/01/29 04:10:49;;;;;;;8.97;4.27;;;3.00;99.90;;;;;;5064020;28;21001;-64
2024/01/29 04:13:16;;;;;;;11.90;4.80;;;3.00;99.90;;;;;;5074192;28;20457;-63
2024/01/29 04:15:43;;;;;;;12.27;5.40;;;3.00;99.90;;;;;;5080764;28;20487;-62
2024/01/29 04:18:10;;;;;;;16.43;4.23;;;3.00;99.90;;;;;;5076644;28;20447;-64
2024/01/29 04:20:37;;;;;;;10.87;4.70;;;3.00;99.90;;;;;;5089710;28;20567;-63
2024/01/29 04:23:05;;;;;;;14.83;7.53;;;3.00;99.90;;;;;;5089109;28;20519;-64
2024/01/29 04:25:32;;;;;;;9.30;5.20;;;2.90;99.90;;;;;;5076050;28;20453;-65
2024/01/29 04:28:02;;;;;;;10.90;4.93;;;2.90;99.90;;;;;;5063887;28;20544;-65
2024/01/29 04:30:29;;;;;;;7.87;4.10;;;2.90;99.90;;;;;;5065342;28;20452;-65
2024/01/29 04:32:55;;;;;;;18.63;5.20;;;3.00;99.90;;;;;;5068212;28;20514;-65
2024/01/29 04:35:22;;;;;;;5.53;4.10;;;3.00;99.90;;;;;;5061001;28;20511;-66
2024/01/29 04:37:49;;;;;;;17.93;5.90;;;3.00;99.90;;;;;;5071637;28;20523;-66
2024/01/29 04:40:17;;;;;;;12.97;5.00;;;2.90;99.90;;;;;;5075249;28;20548;-65
2024/01/29 04:42:44;;;;;;;18.80;5.20;;;2.90;99.90;;;;;;5075611;28;20879;-64
2024/01/29 04:45:11;;;;;;;7.33;5.13;;;2.90;99.90;;;;;;5075259;28;20479;-65
2024/01/29 04:47:38;;;;;;;12.33;4.00;;;2.90;99.90;;;;;;5075458;28;20555;-63
2024/01/29 04:50:07;;;;;;;8.10;4.67;;;2.90;99.90;;;;;;5079249;28;20480;-66
2024/01/29 04:52:34;;;;;;;15.43;6.07;;;2.90;99.90;;;;;;5079760;28;20513;-64
2024/01/29 04:55:01;;;;;;;12.03;5.93;;;2.90;99.90;;;;;;5081019;28;20479;-67
2024/01/29 04:57:29;;;;;;;8.43;4.60;;;2.80;99.90;;;;;;5086100;28;20444;-64
2024/01/29 04:59:57;;;;;;;12.20;4.90;;;2.90;99.90;;;;;;5085408;28;20472;-64
2024/01/29 05:02:24;;;;;;;9.27;4.50;;;2.90;99.90;;;;;;5076356;28;20535;-64
2024/01/29 05:04:51;;;;;;;7.30;4.93;;;3.00;99.90;;;;;;5075147;28;20522;-66
2024/01/29 05:07:18;;;;;;;10.57;5.43;;;3.00;99.90;;;;;;5074977;28;20552;-64
2024/01/29 05:09:44;;;;;;;12.77;5.50;;;3.00;99.90;;;;;;5075114;28;20483;-66
2024/01/29 05:12:11;;;;;;;9.10;5.80;;;3.00;99.90;;;;;;5074815;28;20437;-65
2024/01/29 05:14:39;;;;;;;14.67;5.13;;;2.90;99.90;;;;;;5066470;28;20448;-64
2024/01/29 05:17:06;;;;;;;9.93;5.20;;;2.90;99.90;;;;;;5078607;28;20479;-64
2024/01/29 05:19:33;;;;;;;13.90;6.50;;;2.90;99.90;;;;;;5092250;28;20439;-63
2024/01/29 05:22:01;;;;;;;13.13;5.57;;;3.00;99.90;;;;;;5084989;28;21194;-65
2024/01/29 05:24:28;;;;;;;14.03;5.53;;;2.90;99.90;;;;;;5054718;28;20450;-65
2024/01/29 05:26:55;;;;;;;12.03;6.13;;;2.90;99.90;;;;;;5056744;28;20552;-64
2024/01/29 05:29:22;;;;;;;13.53;5.87;;;2.90;99.90;;;;;;5056784;28;20520;-62
2024/01/29 05:31:50;;;;;;;8.57;5.23;;;2.90;99.90;;;;;;5055487;28;20813;-65
2024/01/29 05:34:17;;;;;;;10.13;6.00;;;2.90;99.90;;;;;;5054761;28;20983;-65
2024/01/29 05:36:44;;;;;;;10.60;4.77;;;2.90;99.90;;;;;;5054381;28;20458;-66
2024/01/29 05:39:11;;;;;;;10.33;5.07;;;2.90;99.90;;;;;;5054298;28;20473;-64
2024/01/29 05:41:38;;;;;;;7.60;4.97;;;2.90;99.90;;;;;;5054354;28;21079;-65
2024/01/29 05:44:05;;;;;;;7.83;4.87;;;3.00;99.90;;;;;;5054166;28;20572;-65
2024/01/29 05:46:32;;;;;;;13.67;7.70;;;3.00;99.90;;;;;;5056428;28;20448;-66
2024/01/29 05:49:00;;;;;;;9.53;5.70;;;3.00;99.90;;;;;;5055164;28;20479;-64
2024/01/29 05:51:27;;;;;;;11.33;5.57;;;3.00;99.90;;;;;;5073308;28;20551;-65
2024/01/29 05:53:54;;;;;;;15.30;5.17;;;3.00;99.90;;;;;;5074638;28;20953;-65
2024/01/29 05:56:20;;;;;;;11.80;5.80;;;3.00;99.90;;;;;;5063884;28;20806;-63
2024/01/29 05:58:47;;;;;;;12.23;6.00;;;3.00;99.90;;;;;;5053760;28;20885;-64
2024/01/29 06:01:14;;;;;;;7.73;4.73;;;3.00;99.90;;;;;;5068828;28;20447;-64
2024/01/29 06:03:41;;;;;;;13.53;6.03;;;3.00;99.90;;;;;;5061620;28;20578;-63
2024/01/29 06:06:09;;;;;;;13.50;6.60;;;2.90;99.90;;;;;;5054084;28;20477;-66
2024/01/29 06:08:36;;;;;;;21.33;6.50;;;2.90;99.90;;;;;;5064685;28;20487;-64
2024/01/29 06:11:03;;;;;;;12.33;6.10;;;2.90;99.90;;;;;;5076461;28;20447;-64
2024/01/29 06:13:30;;;;;;;13.37;5.90;;;3.00;99.90;;;;;;5076422;28;20490;-65
2024/01/29 06:15:58;;;;;;;8.57;5.87;;;3.00;99.90;;;;;;5074548;28;20554;-61
2024/01/29 06:18:24;;;;;;;7.60;4.80;;;3.00;99.90;;;;;;5065115;28;20517;-65
2024/01/29 06:20:51;;;;;;;9.60;4.90;;;3.00;99.90;;;;;;5073779;28;20522;-65
2024/01/29 06:23:20;;;;;;;7.60;5.00;;;2.90;99.90;;;;;;5073495;28;20555;-64
2024/01/29 06:25:53;;;;;;;10.57;5.57;;;2.90;99.90;;;;;;5073758;28;20443;-64
2024/01/29 06:28:20;;;;;;;10.40;4.80;;;3.00;99.90;;;;;;5073653;28;20503;-66
2024/01/29 06:30:47;;;;;;;7.13;5.60;;;2.90;99.90;;;;;;5074124;28;20527;-65
2024/01/29 06:33:13;;;;;;;11.63;5.77;;;2.90;99.90;;;;;;5092221;28;20424;-64
2024/01/29 06:35:40;;;;;;;15.97;5.73;;;2.90;99.90;;;;;;5094761;28;20447;-65
2024/01/29 06:38:10;;;;;;;7.03;4.50;;;2.90;99.90;;;;;;5096014;28;20441;-64
2024/01/29 06:40:38;;;;;;;9.70;5.43;;;2.90;99.90;;;;;;5095721;28;20474;-67
2024/01/29 06:43:08;;;;;;;12.70;6.10;;;2.90;99.90;;;;;;5094226;28;20478;-64
2024/01/29 06:45:35;;;;;;;10.83;4.70;;;2.90;99.90;;;;;;5094433;28;20451;-63
2024/01/29 06:48:02;;;;;;;10.33;5.57;;;2.90;99.90;;;;;;5094344;28;20420;-65
2024/01/29 06:50:29;;;;;;;14.43;5.07;;;2.90;99.90;;;;;;5094191;28;20523;-66
2024/01/29 06:52:58;;;;;;;8.60;4.67;;;2.90;99.90;;;;;;5095497;28;20985;-64
2024/01/29 06:55:25;;;;;;;10.57;5.77;;;2.90;99.90;;;;;;5081633;28;20425;-67
2024/01/29 06:57:53;;;;;;;10.27;6.00;;;2.90;99.90;;;;;;5088075;28;20458;-62
2024/01/29 07:00:21;;;;;;;12.60;6.00;;;2.90;99.90;;;;;;5079077;28;20440;-64
2024/01/29 07:02:47;;;;;;;8.97;4.93;;;2.90;99.90;;;;;;5066511;28;20877;-66
2024/01/29 07:05:17;;;;;;;11.20;5.00;;;2.90;99.90;;;;;;5073870;28;20498;-64
2024/01/29 07:07:44;;;;;;;10.07;5.17;;;2.90;99.90;;;;;;5076024;28;20500;-65
2024/01/29 07:10:11;;;;;;;12.73;5.90;;;2.90;99.90;;;;;;5065278;28;20551;-65
2024/01/29 07:12:37;;;;;;;13.63;5.47;;;2.90;99.90;;;;;;5055697;28;20437;-64
2024/01/29 07:15:06;;;;;;;14.70;6.00;;;3.00;99.90;;;;;;5062912;28;20467;-65
2024/01/29 07:17:33;;;;;;;13.83;5.53;;;3.00;99.90;;;;;;5070106;28;20491;-65
2024/01/29 07:20:02;;;;;;;13.13;5.57;;;3.00;99.90;;;;;;5081043;28;20440;-64
2024/01/29 07:22:29;;;;;;;18.73;5.33;;;3.00;99.90;;;;;;5080509;28;20452;-66
2024/01/29 07:24:56;;;;;;;14.27;6.10;;;3.10;99.90;;;;;;5076369;28;20533;-64
2024/01/29 07:27:23;;;;;;;11.87;5.30;;;3.10;99.90;;;;;;5067740;28;20493;-66
2024/01/29 07:29:53;;;;;;;11.93;4.87;;;3.20;99.90;;;;;;5074865;28;22311;-65
2024/01/29 07:32:21;;;;;;;6.40;4.10;;;3.20;99.90;;;;;;5075275;28;20438;-64
2024/01/29 07:34:48;;;;;;;12.00;5.37;;;3.20;99.90;;;;;;5088111;28;20440;-61
2024/01/29 07:37:15;;;;;;;15.47;6.57;;;3.20;99.90;;;;;;5087858;28;20460;-64
2024/01/29 07:39:43;;;;;;;13.23;5.53;;;3.10;99.90;;;;;;5089070;28;20440;-65
2024/01/29 07:42:09;;;;;;;25.27;6.90;;;3.10;99.90;;;;;;5082809;28;20759;-63
2024/01/29 07:44:38;;;;;;;6.97;4.77;;;3.20;99.90;;;;;;5081877;28;20500;-62
2024/01/29 07:47:05;;;;;;;11.53;5.73;;;3.20;99.90;;;;;;5073665;28;20440;-64
2024/01/29 07:49:33;;;;;;;8.27;4.77;;;3.20;99.90;;;;;;5074160;28;20473;-65
2024/01/29 07:52:00;;;;;;;13.03;5.00;;;3.20;99.90;;;;;;5073407;28;20446;-64
2024/01/29 07:54:27;;;;;;;8.83;5.00;;;3.30;99.90;;;;;;5065325;28;20460;-64
2024/01/29 07:56:54;;;;;;;6.07;3.97;;;3.30;99.90;;;;;;5068459;28;20476;-63
2024/01/29 07:59:21;;;;;;;10.07;4.77;;;3.40;99.90;;;;;;5079077;28;20467;-66
2024/01/29 08:01:49;;;;;;;12.70;5.93;;;3.40;99.90;;;;;;5088318;28;20469;-63
2024/01/29 08:04:15;;;;;;;11.90;5.40;;;3.40;99.90;;;;;;5079284;28;20476;-66
2024/01/29 08:06:46;;;;;;;8.03;4.70;;;3.50;99.90;;;;;;5082244;28;20453;-64
2024/01/29 08:09:18;;;;;;;15.30;5.90;;;3.50;99.90;;;;;;5084145;28;20448;-63
2024/01/29 08:11:47;;;;;;;13.80;4.93;;;3.50;99.90;;;;;;5086320;28;20504;-62
2024/01/29 08:14:14;;;;;;;8.77;4.70;;;3.60;99.90;;;;;;5091946;28;20434;-64
2024/01/29 08:16:40;;;;;;;9.90;4.60;;;3.60;99.90;;;;;;5083778;28;20907;-64
2024/01/29 08:19:07;;;;;;;17.90;5.43;;;3.70;99.90;;;;;;5072263;28;20555;-64
2024/01/29 08:21:34;;;;;;;5.60;3.80;;;3.70;99.90;;;;;;5064543;28;20480;-64
2024/01/29 08:24:03;;;;;;;8.70;4.30;;;3.80;99.90;;;;;;5064202;28;20503;-62
2024/01/29 08:26:30;;;;;;;8.50;4.23;;;3.80;99.90;;;;;;5081892;28;20421;-65
2024/01/29 08:28:57;;;;;;;8.70;3.87;;;3.90;99.90;;;;;;5075199;28;20829;-65
2024/01/29 08:31:24;;;;;;;9.30;4.40;;;3.90;99.90;;;;;;5070392;28;20480;-64
2024/01/29 08:33:51;;;;;;;9.57;4.30;;;4.00;99.90;;;;;;5055963;28;20532;-64
2024/01/29 08:36:20;;;;;;;12.73;5.13;;;4.10;99.90;;;;;;5055844;28;20532;-64
2024/01/29 08:38:47;;;;;;;11.93;5.33;;;4.10;99.90;;;;;;5058391;28;20762;-64
2024/01/29 08:41:15;;;;;;;9.37;4.13;;;4.20;99.90;;;;;;5061765;28;20979;-62
2024/01/29 08:43:43;;;;;;;8.63;4.80;;;4.20;99.90;;;;;;5066456;28;20568;-63
2024/01/29 08:46:10;;;;;;;12.47;5.93;;;4.30;99.90;;;;;;5074463;28;20527;-65
2024/01/29 08:48:37;;;;;;;16.17;6.90;;;4.30;99.90;;;;;;5074805;28;20437;-63
2024/01/29 08:51:04;;;;;;;10.50;6.17;;;4.30;99.90;;;;;;5074884;28;20983;-65
2024/01/29 08:53:31;;;;;;;13.30;7.27;;;4.40;99.90;;;;;;5074808;28;20533;-66
2024/01/29 08:55:58;;;;;;;13.97;6.70;;;4.50;99.90;;;;;;5074697;28;21013;-63
2024/01/29 08:58:27;;;;;;;12.37;5.10;;;4.60;99.90;;;;;;5074447;28;20441;-64
2024/01/29 09:00:54;;;;;;;13.50;4.73;;;4.60;99.90;;;;;;5071998;28;20912;-64
2024/01/29 09:03:21;;;;;;;9.53;5.73;;;4.70;99.90;;;;;;5074504;28;20474;-65
2024/01/29 09:05:48;;;;;;;11.63;6.10;;;4.70;99.90;;;;;;5074034;28;20463;-66
2024/01/29 09:08:15;;;;;;;10.47;4.37;;;4.80;99.90;;;;;;5076513;28;20463;-65
2024/01/29 09:10:42;;;;;;;5.90;4.20;;;4.90;99.90;;;;;;5089766;28;20448;-63
2024/01/29 09:13:09;;;;;;;31.63;13.60;;;5.00;99.90;;;;;;5088703;28;20432;-64
2024/01/29 09:15:38;;;;;;;33.80;11.00;;;5.30;99.90;;;;;;5081561;28;20514;-65
2024/01/29 09:18:05;;;;;;;9.67;6.10;;;7.30;99.90;;;;;;5079395;28;20455;-62
2024/01/29 09:20:32;;;;;;;12.17;6.40;;;8.20;99.90;;;;;;5095934;28;20475;-62
2024/01/29 09:22:59;;;;;;;10.27;5.10;;;7.20;99.90;;;;;;5084281;28;20449;-65
2024/01/29 09:25:26;;;;;;;21.70;7.93;;;6.80;99.90;;;;;;5079814;28;20446;-71
2024/01/29 09:27:53;;;;;;;14.80;8.17;;;6.50;99.90;;;;;;5078791;28;20497;-67
2024/01/29 09:30:20;;;;;;;9.80;5.20;;;7.40;99.90;;;;;;5074712;28;20533;-66
2024/01/29 09:32:48;;;;;;;19.20;6.33;;;7.10;99.90;;;;;;5074440;28;20469;-65
2024/01/29 09:35:15;;;;;;;14.47;5.50;;;6.90;99.90;;;;;;5073780;28;20473;-66
2024/01/29 09:37:42;;;;;;;7.53;4.27;;;6.80;99.90;;;;;;5074488;28;20514;-65
2024/01/29 09:40:13;;;;;;;12.80;5.10;;;6.80;99.90;;;;;;5074384;28;20477;-65
2024/01/29 09:42:42;;;;;;;9.50;4.53;;;6.80;99.90;;;;;;5074708;28;20444;-62
2024/01/29 09:45:12;;;;;;;9.43;5.70;;;6.80;99.90;;;;;;5074066;28;20520;-65
2024/01/29 09:47:41;;;;;;;7.03;5.00;;;6.90;99.90;;;;;;5074833;28;20452;-66
2024/01/29 09:50:11;;;;;;;11.20;4.50;;;7.10;99.90;;;;;;5078258;28;20462;-65
2024/01/29 09:52:40;;;;;;;12.27;5.07;;;7.80;99.90;;;;;;5078480;28;20917;-65
2024/01/29 09:55:10;;;;;;;7.37;3.73;;;8.80;99.90;;;;;;5075694;28;20442;-66
2024/01/29 09:57:37;;;;;;;7.97;4.43;;;9.60;99.90;;;;;;5073971;28;20466;-64
2024/01/29 10:00:05;;;;;;;7.23;4.37;;;10.10;99.90;;;;;;5074404;28;20454;-65
2024/01/29 10:02:34;;;;;;;5.90;3.83;;;10.40;99.90;;;;;;5077865;28;20446;-66
2024/01/29 10:05:01;;;;;;;7.93;4.50;;;10.70;99.90;;;;;;5075200;28;20489;-66
2024/01/29 10:07:29;;;;;;;6.93;4.67;;;11.00;99.10;;;;;;5074345;28;20516;-65
2024/01/29 10:09:56;;;;;;;6.90;4.70;;;11.60;96.80;;;;;;5072962;28;20583;-64
2024/01/29 10:12:26;;;;;;;7.00;5.17;;;12.20;92.40;;;;;;5079086;28;20490;-63
2024/01/29 10:14:56;;;;;;;6.80;5.13;;;12.50;92.00;;;;;;5083746;28;20443;-65
2024/01/29 10:17:24;;;;;;;6.83;4.67;;;12.70;88.90;;;;;;5088263;28;20559;-64
2024/01/29 10:19:54;;;;;;;11.60;4.43;;;12.60;89.70;;;;;;5093621;28;20443;-67
2024/01/29 10:22:27;;;;;;;6.40;4.10;;;13.00;84.00;;;;;;5092002;28;20870;-67
2024/01/29 10:25:03;;;;;;;10.40;4.13;;;13.50;83.50;;;;;;5090161;28;20538;-64
2024/01/29 10:27:31;;;;;;;9.27;5.20;;;14.10;78.00;;;;;;5077467;28;20489;-68
2024/01/29 10:30:00;;;;;;;7.77;5.13;;;14.60;75.00;;;;;;5077639;28;20516;-66
2024/01/29 10:32:27;;;;;;;9.83;4.73;;;15.20;72.40;;;;;;5076400;28;20442;-65
2024/01/29 10:34:53;;;;;;;6.83;4.33;;;15.60;67.40;;;;;;5079767;28;20493;-64
2024/01/29 10:37:22;;;;;;;10.10;4.47;;;15.80;64.40;;;;;;5075045;28;20489;-65
2024/01/29 10:39:49;;;;;;;6.97;5.00;;;16.00;63.40;;;;;;5073676;28;20590;-62
2024/01/29 10:42:20;;;;;;;11.00;4.43;;;16.10;60.50;;;;;;5073473;28;20949;-66
2024/01/29 10:44:48;;;;;;;8.40;4.10;;;16.10;59.20;;;;;;5073573;28;20982;-66
2024/01/29 10:47:24;;;;;;;6.20;4.00;;;16.00;58.40;;;;;;5075315;28;20501;-64
2024/01/29 10:49:52;;;;;;;10.50;4.47;;;15.90;58.30;;;;;;5078043;28;20499;-63
2024/01/29 10:52:21;;;;;;;6.00;4.23;;;15.80;57.30;;;;;;5077719;28;20978;-65
2024/01/29 10:54:48;;;;;;;6.80;4.30;;;15.60;57.70;;;;;;5078169;28;20539;-64
2024/01/29 10:57:18;;;;;;;5.43;3.33;;;15.50;57.30;;;;;;5080660;28;20930;-64
2024/01/29 10:59:45;;;;;;;6.00;3.70;;;15.20;56.70;;;;;;5080870;28;20474;-64
2024/01/29 11:02:15;;;;;;;6.43;3.97;;;14.90;57.00;;;;;;5087993;28;20491;-65
2024/01/29 11:04:41;;;;;;;5.70;4.13;;;14.70;57.30;;;;;;5083693;28;20481;-66
2024/01/29 11:07:15;;;;;;;5.70;3.20;;;14.30;57.20;;;;;;5085269;28;20538;-65
2024/01/29 11:09:49;;;;;;;7.30;3.50;;;14.00;57.40;;;;;;5081058;28;20912;-65
2024/01/29 11:12:18;;;;;;;7.77;2.93;;;13.60;57.80;;;;;;5078050;28;20500;-66
2024/01/29 11:14:57;;;;;;;4.97;3.20;;;13.20;58.50;;;;;;5076581;28;20438;-66
2024/01/29 11:17:24;;;;;;;6.13;3.70;;;12.90;59.80;;;;;;5095765;28;20454;-65
2024/01/29 11:19:52;;;;;;;4.03;3.00;;;12.70;60.20;;;;;;5096183;28;20434;-65
2024/01/29 11:22:18;;;;;;;4.27;3.20;;;12.30;60.50;;;;;;5095886;28;20454;-64
2024/01/29 11:24:45;;;;;;;4.90;3.87;;;12.00;61.40;;;;;;5096536;28;20490;-65
2024/01/29 11:27:13;;;;;;;6.67;3.47;;;11.80;62.40;;;;;;5100395;28;20453;-65
2024/01/29 11:29:48;;;;;;;4.63;2.97;;;11.60;64.70;;;;;;5100029;28;20443;-63
2024/01/29 11:32:16;;;;;;;7.30;4.90;;;11.30;67.60;;;;;;5096087;28;20440;-64
2024/01/29 11:34:43;;;;;;;10.10;3.23;;;11.20;66.60;;;;;;5096393;28;20431;-63
2024/01/29 11:37:10;;;;;;;4.83;2.70;;;11.20;67.10;;;;;;5088019;28;20567;-63
2024/01/29 11:39:43;;;;;;;6.00;3.00;;;11.20;66.30;;;;;;5083506;28;20493;-65
2024/01/29 11:42:11;;;;;;;5.53;2.47;;;11.20;67.00;;;;;;5081102;28;20478;-65
2024/01/29 11:44:38;;;;;;;4.60;2.40;;;11.20;67.70;;;;;;5081071;28;20478;-64
2024/01/29 11:47:10;;;;;;;5.97;2.63;;;11.20;67.40;;;;;;5076622;28;20458;-66
2024/01/29 11:49:36;;;;;;;4.30;3.60;;;11.10;67.70;;;;;;5076473;28;20456;-63
2024/01/29 11:52:08;;;;;;;3.70;3.03;;;11.00;68.60;;;;;;5076740;28;20474;-67
2024/01/29 11:54:34;;;;;;;4.40;3.00;;;11.00;67.10;;;;;;5076303;28;20545;-64
2024/01/29 11:57:01;;;;;;;10.53;3.50;;;11.10;67.60;;;;;;5076361;28;20538;-69
2024/01/29 11:59:28;;;;;;;5.97;2.10;;;11.00;66.40;;;;;;5088617;28;20467;-65
2024/01/29 12:01:55;;;;;;;6.10;3.40;;;11.00;66.20;;;;;;5098083;28;20439;-63
2024/01/29 12:04:23;;;;;;;8.00;2.80;;;11.00;66.10;;;;;;5097841;28;20512;-64
2024/01/29 12:06:53;;;;;;;3.13;1.77;;;11.00;66.30;;;;;;5097926;28;20434;-65
2024/01/29 12:09:20;;;;;;;3.93;2.10;;;11.00;66.30;;;;;;5098766;28;20490;-65
2024/01/29 12:11:47;;;;;;;6.77;3.23;;;11.10;67.70;;;;;;5097519;28;20434;-65
2024/01/29 12:14:15;;;;;;;4.70;2.60;;;11.10;67.30;;;;;;5097262;28;20474;-67
2024/01/29 12:16:44;;;;;;;4.30;2.03;;;11.10;67.80;;;;;;5079884;28;20459;-67
2024/01/29 12:19:11;;;;;;;4.57;2.70;;;11.10;67.00;;;;;;5076321;28;20470;-65
2024/01/29 12:21:42;;;;;;;3.37;2.13;;;11.10;68.20;;;;;;5079330;28;20526;-65
2024/01/29 12:24:09;;;;;;;17.30;7.53;;;11.10;67.40;;;;;;5082018;28;20570;-66
2024/01/29 12:26:38;;;;;;;3.07;2.57;;;11.10;68.00;;;;;;5081836;28;20443;-66
2024/01/29 12:29:05;;;;;;;3.53;2.00;;;11.10;66.40;;;;;;5081964;28;20430;-67
2024/01/29 12:31:32;;;;;;;5.60;2.67;;;11.10;68.00;;;;;;5082024;28;20538;-63
2024/01/29 12:33:59;;;;;;;3.97;2.40;;;11.00;69.50;;;;;;5083618;28;20508;-65
2024/01/29 12:36:26;;;;;;;5.83;3.43;;;11.00;68.80;;;;;;5089620;28;20446;-66
2024/01/29 12:38:57;;;;;;;4.47;2.57;;;11.10;69.20;;;;;;5090527;28;20577;-64
2024/01/29 12:41:24;;;;;;;7.23;2.43;;;11.00;69.60;;;;;;5090503;28;20461;-69
2024/01/29 12:43:54;;;;;;;4.43;2.27;;;11.00;69.50;;;;;;5090505;28;20481;-66
2024/01/29 12:46:25;;;;;;;4.57;2.90;;;11.00;69.50;;;;;;5088174;28;20473;-67
2024/01/29 12:48:53;;;;;;;3.07;2.40;;;10.90;71.50;;;;;;5085454;28;20529;-64
2024/01/29 12:51:20;;;;;;;5.07;2.97;;;10.90;71.50;;;;;;5082112;28;20439;-66
2024/01/29 12:53:56;;;;;;;5.10;2.80;;;10.90;69.40;;;;;;5083075;28;20449;-65